createdAt,value
2022-11-26T00:01:48.657Z,79.30
2022-11-26T00:05:55.742Z,79.60
2022-11-26T00:10:00.167Z,80.00
2022-11-26T00:14:03.678Z,80.20
2022-11-26T00:18:07.099Z,80.40
2022-11-26T00:22:26.870Z,80.70
2022-11-26T00:26:30.738Z,80.80
2022-11-26T00:30:34.350Z,80.90
2022-11-26T00:34:38.248Z,81.10
2022-11-26T00:38:42.087Z,81.20
2022-11-26T00:42:46.005Z,81.30
2022-11-26T00:46:50.298Z,81.40
2022-11-26T00:50:54.065Z,81.40
2022-11-26T00:54:57.677Z,81.50
2022-11-26T00:59:01.181Z,81.50
2022-11-26T01:03:04.873Z,81.50
2022-11-26T01:07:11.234Z,81.50
2022-11-26T01:11:19.200Z,81.60
2022-11-26T01:15:25.842Z,81.60
2022-11-26T01:19:29.965Z,81.70
2022-11-26T01:23:33.459Z,81.70
2022-11-26T01:27:36.925Z,81.70
2022-11-26T01:31:40.437Z,81.70
2022-11-26T01:35:45.886Z,81.70
2022-11-26T01:39:49.534Z,81.80
2022-11-26T01:43:56.946Z,81.80
2022-11-26T01:48:00.485Z,81.90
2022-11-26T01:52:07.421Z,81.90
2022-11-26T01:56:45.701Z,82.00
2022-11-26T02:00:52.621Z,82.10
2022-11-26T02:05:09.636Z,82.10
2022-11-26T02:09:14.022Z,82.20
2022-11-26T02:13:18.613Z,82.20
2022-11-26T02:17:43.656Z,82.30
2022-11-26T02:21:56.639Z,82.40
2022-11-26T02:26:37.673Z,82.50
2022-11-26T02:30:53.486Z,82.50
2022-11-26T02:35:09.154Z,82.40
2022-11-26T02:39:24.148Z,82.40
2022-11-26T02:43:28.123Z,82.50
2022-11-26T02:47:34.702Z,82.50
2022-11-26T02:51:39.110Z,82.60
2022-11-26T02:55:48.043Z,82.60
2022-11-26T02:59:51.699Z,82.70
2022-11-26T03:04:01.363Z,82.70
2022-11-26T03:08:07.018Z,82.60
2022-11-26T03:12:10.717Z,82.50
2022-11-26T03:16:14.572Z,82.50
2022-11-26T03:20:18.527Z,82.50
2022-11-26T03:24:22.051Z,82.60
2022-11-26T03:28:25.515Z,82.60
2022-11-26T03:32:29.141Z,82.60
2022-11-26T03:36:34.925Z,82.70
2022-11-26T03:40:38.752Z,82.80
2022-11-26T03:44:42.286Z,82.90
2022-11-26T03:48:45.733Z,83.10
2022-11-26T03:52:49.220Z,83.30
2022-11-26T03:56:52.658Z,83.40
2022-11-26T04:00:56.295Z,83.30
2022-11-26T04:05:00.810Z,83.40
2022-11-26T04:09:05.075Z,83.30
2022-11-26T04:13:09.514Z,83.30
2022-11-26T04:17:14.802Z,83.20
2022-11-26T04:21:19.081Z,83.20
2022-11-26T04:25:26.773Z,83.10
2022-11-26T04:29:30.543Z,83.10
2022-11-26T04:33:34.008Z,83.10
2022-11-26T04:37:37.556Z,83.10
2022-11-26T04:41:43.099Z,83.20
2022-11-26T04:45:46.907Z,83.20
2022-11-26T04:49:50.561Z,83.20
2022-11-26T04:53:55.980Z,83.20
2022-11-26T04:58:02.779Z,83.20
2022-11-26T05:02:06.295Z,83.20
2022-11-26T05:06:11.013Z,83.20
2022-11-26T05:10:14.584Z,83.20
2022-11-26T05:14:18.645Z,83.20
2022-11-26T05:18:22.878Z,83.20
2022-11-26T05:22:26.454Z,83.20
2022-11-26T05:26:29.925Z,83.20
2022-11-26T05:30:34.637Z,83.30
2022-11-26T05:34:39.645Z,83.30
2022-11-26T05:38:43.135Z,83.20
2022-11-26T05:42:46.648Z,83.30
2022-11-26T05:46:51.533Z,83.40
2022-11-26T05:50:59.706Z,83.60
2022-11-26T05:55:03.648Z,83.70
2022-11-26T05:59:08.263Z,83.70
2022-11-26T06:03:18.397Z,83.70
2022-11-26T06:07:24.840Z,83.60
2022-11-26T06:11:28.714Z,83.60
2022-11-26T06:15:33.116Z,83.50
2022-11-26T06:19:36.918Z,83.40
2022-11-26T06:23:47.412Z,83.30
2022-11-26T06:27:56.794Z,83.10
2022-11-26T06:32:00.848Z,82.80
2022-11-26T06:36:06.784Z,82.70
2022-11-26T06:40:18.178Z,82.70
2022-11-26T06:44:22.229Z,82.70
2022-11-26T06:48:26.685Z,82.50
2022-11-26T06:52:30.437Z,82.30
2022-11-26T06:56:36.197Z,82.20
2022-11-26T07:00:40.389Z,82.00
2022-11-26T07:04:44.169Z,81.90
2022-11-26T07:08:48.962Z,81.70
2022-11-26T07:12:52.729Z,81.60
2022-11-26T07:16:57.605Z,81.60
2022-11-26T07:21:10.252Z,81.60
2022-11-26T07:25:16.207Z,81.60
2022-11-26T07:29:21.167Z,81.50
2022-11-26T07:33:24.505Z,81.50
2022-11-26T07:37:28.732Z,81.40
2022-11-26T07:41:32.457Z,81.40
2022-11-26T07:45:38.575Z,82.20
2022-11-26T07:49:42.973Z,80.80
2022-11-26T07:53:47.306Z,80.90
2022-11-26T07:57:50.983Z,83.30
2022-11-26T08:01:54.552Z,82.40
2022-11-26T08:05:58.296Z,80.70
2022-11-26T08:10:01.988Z,79.70
2022-11-26T08:14:08.262Z,78.10
2022-11-26T08:18:12.220Z,76.30
2022-11-26T08:22:15.687Z,74.60
2022-11-26T08:26:25.064Z,71.90
2022-11-26T08:30:34.662Z,71.60
2022-11-26T08:34:40.266Z,73.00
2022-11-26T08:38:43.809Z,71.90
2022-11-26T08:42:47.253Z,69.40
2022-11-26T08:46:50.900Z,68.00
2022-11-26T08:50:59.501Z,67.00
2022-11-26T08:55:03.302Z,65.40
2022-11-26T08:59:06.898Z,62.90
2022-11-26T09:03:10.489Z,63.00
2022-11-26T09:07:15.694Z,61.40
2022-11-26T09:11:22.162Z,61.40
2022-11-26T09:15:25.927Z,62.00
2022-11-26T09:19:29.995Z,61.90
2022-11-26T09:23:33.367Z,62.20
2022-11-26T09:27:39.535Z,61.80
2022-11-26T09:32:01.194Z,63.20
2022-11-26T09:36:13.510Z,63.50
2022-11-26T09:40:19.510Z,63.40
2022-11-26T09:44:56.082Z,64.20
2022-11-26T09:49:04.160Z,65.00
2022-11-26T09:53:28.165Z,66.80
2022-11-26T09:57:35.756Z,67.30
2022-11-26T10:01:41.197Z,67.20
2022-11-26T10:06:03.086Z,67.50
2022-11-26T10:10:28.059Z,68.10
2022-11-26T10:14:43.461Z,69.70
2022-11-26T10:18:56.336Z,71.10
2022-11-26T10:23:11.524Z,68.30
2022-11-26T10:27:18.665Z,68.50
2022-11-26T10:31:28.636Z,68.40
2022-11-26T10:35:33.640Z,70.80
2022-11-26T10:39:38.016Z,70.70
2022-11-26T10:43:41.746Z,69.40
2022-11-26T10:47:45.178Z,68.60
2022-11-26T10:51:56.018Z,68.50
2022-11-26T10:56:07.442Z,70.20
2022-11-26T11:00:36.397Z,70.50
2022-11-26T11:04:45.604Z,68.90
2022-11-26T11:08:51.290Z,66.60
2022-11-26T11:13:09.105Z,65.70
2022-11-26T11:17:37.427Z,66.10
2022-11-26T11:21:48.373Z,65.70
2022-11-26T11:26:16.131Z,65.10
2022-11-26T11:30:28.179Z,64.50
2022-11-26T11:34:44.831Z,65.30
2022-11-26T11:38:48.275Z,63.70
2022-11-26T11:43:06.438Z,61.30
2022-11-26T11:47:31.054Z,61.80
2022-11-26T11:52:00.855Z,63.00
2022-11-26T11:56:34.418Z,65.50
2022-11-26T12:01:06.817Z,67.30
2022-11-26T12:05:39.831Z,67.50
2022-11-26T12:10:01.569Z,66.10
2022-11-26T12:14:24.790Z,64.90
2022-11-26T12:18:35.425Z,63.60
2022-11-26T12:23:24.767Z,62.30
2022-11-26T12:27:42.284Z,62.90
2022-11-26T12:31:58.835Z,62.80
2022-11-26T12:36:30.007Z,61.70
2022-11-26T12:40:42.529Z,62.00
2022-11-26T12:44:51.986Z,62.70
2022-11-26T12:49:03.780Z,63.90
2022-11-26T12:53:16.262Z,63.40
2022-11-26T12:57:29.779Z,64.20
2022-11-26T13:01:34.253Z,63.20
2022-11-26T13:05:58.815Z,62.60
2022-11-26T13:10:14.873Z,62.70
2022-11-26T13:14:27.422Z,63.80
2022-11-26T13:18:37.485Z,63.90
2022-11-26T13:22:54.021Z,63.50
2022-11-26T13:27:28.420Z,63.50
2022-11-26T13:31:44.577Z,64.30
2022-11-26T13:36:06.853Z,65.80
2022-11-26T13:41:02.379Z,66.70
2022-11-26T13:45:18.562Z,65.60
2022-11-26T13:49:30.489Z,63.80
2022-11-26T13:53:46.871Z,63.50
2022-11-26T13:57:54.245Z,63.50
2022-11-26T14:02:00.704Z,61.90
2022-11-26T14:06:08.482Z,61.00
2022-11-26T14:10:31.635Z,61.30
2022-11-26T14:14:40.833Z,61.40
2022-11-26T14:18:56.868Z,61.30
2022-11-26T14:23:38.825Z,59.80
2022-11-26T14:27:55.048Z,59.90
2022-11-26T14:31:59.709Z,59.90
2022-11-26T14:36:03.396Z,59.90
2022-11-26T14:40:20.451Z,59.80
2022-11-26T14:44:25.634Z,60.20
2022-11-26T14:48:30.748Z,60.60
2022-11-26T14:52:37.795Z,60.80
2022-11-26T14:56:46.414Z,60.50
2022-11-26T15:01:08.920Z,60.40
2022-11-26T15:05:21.584Z,60.50
2022-11-26T15:09:27.919Z,60.40
2022-11-26T15:13:41.967Z,60.50
2022-11-26T15:17:50.107Z,60.50
2022-11-26T15:21:53.871Z,60.70
2022-11-26T15:25:59.069Z,61.10
2022-11-26T15:30:04.926Z,61.50
2022-11-26T15:34:13.594Z,61.80
2022-11-26T15:38:20.285Z,62.10
2022-11-26T15:42:32.599Z,62.30
2022-11-26T15:46:37.801Z,62.40
2022-11-26T15:50:46.718Z,62.50
2022-11-26T15:55:12.940Z,62.80
2022-11-26T15:59:17.638Z,62.80
2022-11-26T16:03:54.300Z,62.90
2022-11-26T16:08:06.162Z,63.10
2022-11-26T16:12:30.145Z,63.20
2022-11-26T16:16:33.618Z,63.40
2022-11-26T16:20:38.283Z,63.50
2022-11-26T16:24:45.406Z,63.60
2022-11-26T16:28:49.985Z,63.70
2022-11-26T16:32:53.519Z,63.70
2022-11-26T16:37:02.638Z,64.00
2022-11-26T16:41:06.460Z,64.20
2022-11-26T16:45:12.218Z,64.30
2022-11-26T16:49:16.665Z,64.40
2022-11-26T16:53:20.898Z,64.30
2022-11-26T16:57:27.897Z,64.40
2022-11-26T17:01:31.994Z,64.40
2022-11-26T17:05:38.421Z,64.50
2022-11-26T17:09:42.576Z,64.70
2022-11-26T17:13:46.478Z,64.70
2022-11-26T17:17:52.794Z,64.80
2022-11-26T17:21:56.351Z,64.90
2022-11-26T17:26:01.135Z,65.00
2022-11-26T17:30:07.606Z,65.10
2022-11-26T17:34:11.122Z,65.10
2022-11-26T17:38:20.410Z,65.20
2022-11-26T17:42:25.024Z,65.20
2022-11-26T17:46:30.023Z,65.20
2022-11-26T17:50:36.766Z,65.30
2022-11-26T17:54:40.494Z,65.40
2022-11-26T17:58:45.019Z,65.60
2022-11-26T18:02:48.699Z,65.70
2022-11-26T18:07:14.933Z,65.60
2022-11-26T18:11:18.512Z,65.60
2022-11-26T18:15:27.107Z,65.70
2022-11-26T18:19:32.149Z,65.90
2022-11-26T18:23:38.951Z,66.00
2022-11-26T18:27:42.312Z,66.20
2022-11-26T18:31:45.683Z,66.10
2022-11-26T18:35:51.468Z,66.10
2022-11-26T18:39:55.261Z,66.20
2022-11-26T18:44:00.822Z,66.20
2022-11-26T18:48:05.180Z,66.20
2022-11-26T18:52:08.767Z,66.20
2022-11-26T18:56:22.819Z,66.20
2022-11-26T19:00:26.377Z,66.20
2022-11-26T19:04:32.493Z,66.40
2022-11-26T19:08:39.100Z,66.50
2022-11-26T19:12:42.555Z,66.50
2022-11-26T19:16:50.378Z,66.50
2022-11-26T19:20:55.788Z,66.50
2022-11-26T19:24:59.871Z,66.50
2022-11-26T19:29:05.779Z,66.60
2022-11-26T19:33:09.359Z,66.60
2022-11-26T19:37:12.803Z,66.60
2022-11-26T19:41:20.091Z,66.50
2022-11-26T19:45:26.388Z,66.60
2022-11-26T19:49:30.083Z,66.70
2022-11-26T19:53:34.894Z,66.80
2022-11-26T19:57:38.352Z,66.90
2022-11-26T20:01:42.265Z,66.80
2022-11-26T20:05:46.489Z,66.80
2022-11-26T20:09:53.326Z,67.00
2022-11-26T20:13:57.724Z,66.90
2022-11-26T20:18:01.221Z,66.90
2022-11-26T20:22:05.714Z,66.90
2022-11-26T20:26:25.454Z,66.80
2022-11-26T20:30:30.321Z,66.90
2022-11-26T20:34:34.022Z,66.80
2022-11-26T20:38:38.213Z,66.80
2022-11-26T20:42:45.705Z,66.90
2022-11-26T20:46:49.152Z,67.00
2022-11-26T20:50:53.756Z,67.10
2022-11-26T20:54:58.039Z,67.00
2022-11-26T20:59:02.181Z,66.90
2022-11-26T21:03:05.616Z,66.90
2022-11-26T21:07:09.195Z,66.90
2022-11-26T21:11:14.898Z,66.80
2022-11-26T21:15:19.339Z,66.70
2022-11-26T21:19:22.838Z,66.50
2022-11-26T21:23:27.498Z,66.50
2022-11-26T21:27:33.294Z,66.50
2022-11-26T21:31:36.852Z,66.50
2022-11-26T21:35:43.260Z,66.50
2022-11-26T21:39:47.610Z,66.50
2022-11-26T21:43:52.191Z,66.30
2022-11-26T21:47:56.518Z,66.40
2022-11-26T21:52:00.107Z,66.30
2022-11-26T21:56:14.100Z,66.40
2022-11-26T22:00:18.383Z,66.50
2022-11-26T22:04:21.909Z,66.50
2022-11-26T22:08:25.640Z,66.40
2022-11-26T22:12:29.604Z,66.40
2022-11-26T22:16:33.527Z,66.60
2022-11-26T22:20:37.448Z,66.50
2022-11-26T22:24:41.814Z,66.40
2022-11-26T22:28:47.288Z,66.40
2022-11-26T22:32:50.755Z,66.60
2022-11-26T22:36:54.172Z,66.60
2022-11-26T22:41:02.371Z,66.50
2022-11-26T22:45:07.336Z,66.50
2022-11-26T22:49:20.112Z,66.50
2022-11-26T22:53:25.553Z,66.50
2022-11-26T22:57:28.993Z,66.50
2022-11-26T23:01:35.032Z,66.50
2022-11-26T23:05:39.967Z,66.50
2022-11-26T23:09:46.910Z,66.50
2022-11-26T23:13:51.438Z,66.60
2022-11-26T23:17:54.918Z,66.60
2022-11-26T23:21:58.391Z,66.60
2022-11-26T23:26:03.409Z,66.50
2022-11-26T23:30:07.585Z,66.50
2022-11-26T23:34:11.346Z,66.60
2022-11-26T23:38:14.766Z,66.70
2022-11-26T23:42:18.758Z,66.80
2022-11-26T23:46:25.972Z,66.70
2022-11-26T23:50:30.455Z,66.80
2022-11-26T23:54:34.041Z,66.80
2022-11-26T23:58:37.738Z,66.90
